Overview Statistics Trail Chart Weather Telemetry Raw packets
 

This is the latest recevied weather packets stored in our database for station/object KQ7A. If no packets are shown the sender has not sent any weather packets the latest 10 day(s).

<< 72 73 74 75 76 77 78 >>
Time Temp. Humidity Pressure Rain* Wind** Luminosity Snow
1788167743 12.22° C 67% 1018.1 hPa 0 mm - 0 W/m² -
1788167438 11.67° C 67% 1018.1 hPa 0 mm - 0 W/m² -
1788167133 11.67° C 68% 1017.8 hPa 0 mm - 0 W/m² -
1788166829 11.67° C 70% 1017.9 hPa 0 mm - 0 W/m² -
1788166524 11.67° C 70% 1017.9 hPa 0 mm - 0 W/m² -
1788166221 11.11° C 72% 1017.9 hPa 0 mm - 0 W/m² -
1788165915 10.56° C 74% 1017.8 hPa 0 mm - 0 W/m² -
1788165612 11.11° C 74% 1017.9 hPa 0 mm - 0 W/m² -
1788165312 11.11° C 75% 1018.1 hPa 0 mm - 0 W/m² -
1788165006 11.11° C 74% 1018.2 hPa 0 mm - 0 W/m² -
1788164700 11.67° C 72% 1018.1 hPa 0 mm - 0 W/m² -
1788164395 12.22° C 70% 1018.1 hPa 0 mm - 0 W/m² -
1788164091 12.22° C 67% 1018.1 hPa 0 mm - 0 W/m² -
1788163806 12.78° C 65% 1018.1 hPa 0 mm - 0 W/m² -
1788163481 12.78° C 65% 1018.1 hPa 0 mm - 0 W/m² -
1788163176 12.78° C 67% 1018.4 hPa 0 mm - 0 W/m² -
1788162871 12.78° C 69% 1017.9 hPa 0 mm - 0 W/m² -
1788162567 11.67° C 72% 1018.1 hPa 0 mm - 0 W/m² -
1788162261 12.22° C 70% 1018.2 hPa 0 mm - 0 W/m² -
1788161956 12.22° C 70% 1018.1 hPa 0 mm - 0 W/m² -
1788161655 12.22° C 71% 1017.9 hPa 0 mm - 0 W/m² -
1788161350 12.22° C 72% 1018.3 hPa 0 mm - 0 W/m² -
1788161046 12.78° C 70% 1017.9 hPa 0 mm - 0 W/m² -
1788160742 13.33° C 69% 1018.4 hPa 0 mm - 0 W/m² -
1788160440 14.44° C 64% 1018.2 hPa 0 mm - 0 W/m² -

* Rain latest hour (hover to see other rain measurements)
** Current wind speed in m/s (hover to see current wind gust speed)